createdAt,value
2022-08-07T00:00:14.790Z,14.72
2022-08-07T00:02:45.671Z,14.76
2022-08-07T00:05:12.718Z,14.96
2022-08-07T00:07:40.806Z,15.13
2022-08-07T00:10:26.809Z,15.17
2022-08-07T00:13:00.209Z,15.30
2022-08-07T00:15:37.829Z,15.29
2022-08-07T00:18:18.801Z,15.38
2022-08-07T00:20:49.549Z,15.34
2022-08-07T00:23:17.031Z,15.20
2022-08-07T00:25:45.743Z,15.19
2022-08-07T00:28:21.972Z,15.15
2022-08-07T00:30:48.854Z,14.99
2022-08-07T00:33:16.075Z,14.90
2022-08-07T00:35:46.481Z,14.81
2022-08-07T00:38:16.331Z,14.80
2022-08-07T00:40:58.323Z,14.73
2022-08-07T00:44:01.990Z,14.68
2022-08-07T00:46:11.718Z,14.73
2022-08-07T00:48:42.387Z,14.78
2022-08-07T00:51:09.810Z,14.83
2022-08-07T00:53:38.483Z,14.89
2022-08-07T00:56:07.486Z,14.83
2022-08-07T00:58:46.786Z,14.97
2022-08-07T01:01:17.009Z,14.85
2022-08-07T01:03:56.734Z,14.56
2022-08-07T01:06:28.902Z,14.48
2022-08-07T01:09:00.779Z,14.32
2022-08-07T01:12:09.744Z,14.49
2022-08-07T01:14:16.686Z,14.60
2022-08-07T01:16:46.996Z,14.70
2022-08-07T01:19:18.778Z,14.58
2022-08-07T01:21:53.153Z,14.64
2022-08-07T01:24:25.870Z,14.56
2022-08-07T01:26:54.098Z,14.53
2022-08-07T01:29:23.358Z,14.48
2022-08-07T01:31:54.787Z,14.51
2022-08-07T01:34:23.992Z,14.44
2022-08-07T01:36:58.959Z,14.55
2022-08-07T01:39:40.969Z,14.58
2022-08-07T01:42:38.167Z,14.61
2022-08-07T01:45:15.787Z,14.55
2022-08-07T01:48:19.394Z,14.48
2022-08-07T01:50:36.965Z,14.60
2022-08-07T01:53:08.514Z,14.55
2022-08-07T01:55:50.513Z,14.61
2022-08-07T01:58:29.654Z,14.61
2022-08-07T02:01:25.152Z,14.78
2022-08-07T02:03:50.967Z,14.95
2022-08-07T02:06:31.933Z,14.96
2022-08-07T02:09:05.046Z,14.63
2022-08-07T02:12:05.034Z,14.38
2022-08-07T02:14:35.659Z,14.43
2022-08-07T02:17:06.040Z,14.67
2022-08-07T02:20:07.431Z,14.66
2022-08-07T02:22:25.559Z,14.76
2022-08-07T02:24:54.808Z,14.72
2022-08-07T02:27:22.999Z,14.64
2022-08-07T02:29:54.538Z,14.64
2022-08-07T02:32:30.031Z,14.75
2022-08-07T02:34:58.148Z,14.71
2022-08-07T02:37:28.365Z,14.66
2022-08-07T02:40:29.923Z,14.48
2022-08-07T02:42:55.832Z,14.31
2022-08-07T02:45:58.082Z,14.54
2022-08-07T02:48:15.575Z,14.66
2022-08-07T02:50:47.174Z,14.61
2022-08-07T02:53:27.424Z,14.62
2022-08-07T02:56:03.250Z,14.84
2022-08-07T02:58:34.444Z,14.75
2022-08-07T03:01:03.331Z,14.85
2022-08-07T03:03:49.072Z,14.82
2022-08-07T03:06:26.247Z,14.88
2022-08-07T03:09:03.899Z,14.84
2022-08-07T03:11:38.910Z,14.79
2022-08-07T03:14:08.750Z,14.68
2022-08-07T03:16:36.150Z,14.67
2022-08-07T03:19:06.725Z,14.65
2022-08-07T03:21:35.312Z,14.61
2022-08-07T03:24:19.965Z,14.54
2022-08-07T03:26:58.374Z,14.48
2022-08-07T03:29:37.771Z,14.43
2022-08-07T03:32:13.126Z,14.43
2022-08-07T03:34:47.540Z,14.38
2022-08-07T03:37:32.859Z,14.42
2022-08-07T03:40:15.659Z,14.37
2022-08-07T03:42:43.472Z,14.37
2022-08-07T03:45:12.415Z,14.42
2022-08-07T03:48:01.944Z,14.44
2022-08-07T03:50:31.469Z,14.55
2022-08-07T03:53:02.939Z,14.60
2022-08-07T03:55:58.171Z,14.52
2022-08-07T03:59:05.242Z,14.65
2022-08-07T04:01:11.227Z,14.62
2022-08-07T04:03:54.039Z,14.65
2022-08-07T04:06:37.082Z,14.68
2022-08-07T04:09:15.772Z,14.23
2022-08-07T04:12:25.661Z,14.05
2022-08-07T04:14:37.299Z,13.96
2022-08-07T04:17:20.287Z,13.90
2022-08-07T04:19:52.465Z,14.18
2022-08-07T04:22:29.058Z,14.29
2022-08-07T04:25:00.965Z,14.34
2022-08-07T04:27:36.261Z,14.12
2022-08-07T04:30:35.958Z,14.43
2022-08-07T04:33:07.305Z,14.63
2022-08-07T04:35:39.289Z,14.72
2022-08-07T04:38:13.306Z,14.76
2022-08-07T04:40:51.697Z,14.85
2022-08-07T04:43:28.429Z,14.41
2022-08-07T04:46:34.889Z,14.24
2022-08-07T04:49:14.874Z,13.98
2022-08-07T04:51:58.662Z,14.28
2022-08-07T04:54:30.053Z,14.60
2022-08-07T04:58:11.092Z,14.79
2022-08-07T05:00:11.651Z,14.87
2022-08-07T05:02:59.024Z,14.96
2022-08-07T05:05:53.632Z,14.97
2022-08-07T05:08:16.661Z,14.92
2022-08-07T05:11:02.321Z,14.88
2022-08-07T05:14:53.976Z,14.89
2022-08-07T05:16:26.736Z,14.91
2022-08-07T05:18:56.183Z,14.96
2022-08-07T05:21:59.899Z,15.02
2022-08-07T05:24:17.282Z,15.08
2022-08-07T05:26:46.319Z,15.08
2022-08-07T05:29:15.734Z,15.10
2022-08-07T05:31:47.462Z,15.17
2022-08-07T05:34:26.395Z,15.08
2022-08-07T05:36:55.272Z,15.02
2022-08-07T05:40:16.512Z,14.60
2022-08-07T05:42:34.701Z,14.77
2022-08-07T05:45:26.388Z,15.07
2022-08-07T05:48:01.219Z,14.96
2022-08-07T05:50:31.889Z,14.79
2022-08-07T05:53:01.062Z,14.69
2022-08-07T05:56:03.735Z,14.83
2022-08-07T05:58:16.711Z,15.18
2022-08-07T06:00:46.324Z,15.45
2022-08-07T06:03:19.504Z,15.63
2022-08-07T06:05:49.772Z,15.60
2022-08-07T06:08:29.789Z,15.66
2022-08-07T06:10:57.572Z,15.70
2022-08-07T06:14:10.641Z,15.74
2022-08-07T06:16:14.228Z,15.77
2022-08-07T06:18:51.586Z,15.83
2022-08-07T06:22:15.815Z,15.84
2022-08-07T06:24:48.210Z,15.83
2022-08-07T06:26:58.812Z,15.89
2022-08-07T06:29:31.078Z,15.88
2022-08-07T06:31:58.599Z,15.93
2022-08-07T06:34:29.606Z,15.87
2022-08-07T06:36:58.338Z,15.86
2022-08-07T06:40:12.875Z,15.80
2022-08-07T06:42:33.110Z,15.79
2022-08-07T06:45:18.159Z,15.77
2022-08-07T06:47:58.539Z,15.77
2022-08-07T06:50:47.841Z,15.84
2022-08-07T06:55:28.312Z,15.84
2022-08-07T06:56:15.165Z,15.88
2022-08-07T07:00:14.047Z,15.88
2022-08-07T07:01:42.088Z,15.89
2022-08-07T07:04:28.473Z,15.92
2022-08-07T07:07:01.906Z,16.07
2022-08-07T07:09:31.683Z,16.05
2022-08-07T07:12:18.086Z,16.07
2022-08-07T07:15:00.454Z,16.12
2022-08-07T07:17:45.420Z,16.08
2022-08-07T07:20:19.334Z,16.07
2022-08-07T07:24:08.870Z,16.03
2022-08-07T07:26:34.549Z,16.13
2022-08-07T07:28:29.728Z,16.13
2022-08-07T07:31:17.379Z,16.15
2022-08-07T07:33:56.468Z,16.25
2022-08-07T07:36:32.652Z,16.35
2022-08-07T07:39:00.742Z,16.35
2022-08-07T07:41:50.302Z,16.48
2022-08-07T07:44:25.667Z,16.47
2022-08-07T07:47:02.218Z,16.56
2022-08-07T07:50:33.020Z,16.57
2022-08-07T07:52:30.498Z,16.56
2022-08-07T07:54:59.074Z,16.64
2022-08-07T07:57:43.955Z,16.56
2022-08-07T08:00:21.155Z,16.64
2022-08-07T08:03:08.238Z,16.67
2022-08-07T08:05:50.943Z,16.70
2022-08-07T08:08:34.814Z,16.79
2022-08-07T08:11:13.578Z,16.84
2022-08-07T08:13:54.680Z,16.97
2022-08-07T08:16:50.664Z,16.91
2022-08-07T08:20:18.573Z,16.94
2022-08-07T08:22:32.562Z,17.11
2022-08-07T08:25:41.910Z,17.28
2022-08-07T08:28:09.844Z,17.33
2022-08-07T08:30:37.521Z,17.40
2022-08-07T08:33:16.871Z,17.46
2022-08-07T08:35:49.938Z,17.38
2022-08-07T08:38:20.681Z,17.36
2022-08-07T08:41:02.749Z,17.31
2022-08-07T08:43:42.937Z,17.44
2022-08-07T08:46:21.999Z,17.52
2022-08-07T08:49:17.353Z,17.80
2022-08-07T08:52:13.713Z,17.94
2022-08-07T08:54:59.286Z,17.94
2022-08-07T08:57:38.769Z,17.93
2022-08-07T09:00:09.884Z,17.94
2022-08-07T09:02:40.501Z,17.79
2022-08-07T09:05:36.843Z,18.06
2022-08-07T09:08:03.770Z,18.24
2022-08-07T09:10:34.015Z,18.38
2022-08-07T09:13:00.734Z,18.47
2022-08-07T09:16:23.617Z,18.49
2022-08-07T09:18:52.991Z,18.62
2022-08-07T09:21:33.867Z,18.46
2022-08-07T09:24:32.610Z,18.38
2022-08-07T09:27:11.908Z,18.48
2022-08-07T09:30:06.308Z,18.44
2022-08-07T09:32:40.652Z,18.41
2022-08-07T09:36:05.425Z,18.51
2022-08-07T09:38:16.081Z,18.66
2022-08-07T09:40:42.887Z,18.67
2022-08-07T09:43:14.598Z,18.83
2022-08-07T09:47:52.480Z,19.00
2022-08-07T09:50:01.161Z,19.22
2022-08-07T09:52:15.973Z,19.16
2022-08-07T09:55:17.137Z,19.19
2022-08-07T09:58:07.975Z,19.48
2022-08-07T10:00:53.056Z,19.53
2022-08-07T10:04:05.879Z,19.74
2022-08-07T10:06:35.710Z,19.64
2022-08-07T10:09:17.920Z,19.81
2022-08-07T10:12:21.769Z,20.12
2022-08-07T10:14:56.270Z,20.27
2022-08-07T10:18:00.340Z,20.54
2022-08-07T10:20:41.123Z,20.71
2022-08-07T10:23:14.134Z,20.89
2022-08-07T10:25:43.782Z,21.25
2022-08-07T10:28:23.864Z,21.53
2022-08-07T10:30:58.451Z,21.51
2022-08-07T10:34:14.483Z,21.71
2022-08-07T10:36:31.051Z,21.59
2022-08-07T10:39:22.121Z,21.67
2022-08-07T10:42:00.390Z,22.03
2022-08-07T10:44:45.280Z,22.36
2022-08-07T10:47:31.120Z,22.42
2022-08-07T10:50:26.050Z,22.11
2022-08-07T10:52:59.013Z,22.25
2022-08-07T10:55:53.521Z,21.72
2022-08-07T10:58:36.694Z,21.46
2022-08-07T11:01:22.355Z,21.21
2022-08-07T11:04:23.304Z,21.37
2022-08-07T11:06:52.618Z,21.48
2022-08-07T11:10:10.259Z,21.69
2022-08-07T11:12:32.189Z,21.55
2022-08-07T11:15:02.743Z,21.35
2022-08-07T11:17:43.235Z,21.44
2022-08-07T11:20:22.532Z,21.46
2022-08-07T11:22:55.551Z,21.50
2022-08-07T11:25:28.254Z,21.49
2022-08-07T11:28:04.462Z,21.45
2022-08-07T11:30:42.233Z,21.32
2022-08-07T11:33:15.531Z,21.33
2022-08-07T11:35:59.549Z,21.49
2022-08-07T11:38:33.637Z,21.66
2022-08-07T11:41:04.025Z,21.66
2022-08-07T11:43:54.212Z,21.72
2022-08-07T11:46:25.464Z,21.56
2022-08-07T11:49:50.680Z,21.65
2022-08-07T11:51:50.680Z,21.57
2022-08-07T11:54:30.085Z,21.41
2022-08-07T11:57:06.136Z,21.12
2022-08-07T12:00:10.138Z,21.10
2022-08-07T12:02:52.617Z,20.66
2022-08-07T12:05:28.665Z,20.43
2022-08-07T12:08:31.371Z,20.49
2022-08-07T12:11:20.015Z,20.43
2022-08-07T12:13:48.005Z,20.35
2022-08-07T12:16:29.884Z,20.14
2022-08-07T12:19:03.299Z,19.96
2022-08-07T12:22:37.904Z,20.19
2022-08-07T12:24:38.059Z,20.46
2022-08-07T12:27:14.948Z,20.50
2022-08-07T12:29:47.678Z,20.28
2022-08-07T12:32:31.138Z,19.97
2022-08-07T12:34:59.394Z,19.74
2022-08-07T12:38:10.776Z,19.68
2022-08-07T12:40:46.699Z,19.61
2022-08-07T12:43:11.446Z,19.54
2022-08-07T12:45:58.182Z,19.52
2022-08-07T12:48:41.089Z,19.56
2022-08-07T12:51:20.038Z,19.90
2022-08-07T12:54:02.996Z,20.09
2022-08-07T12:56:36.381Z,20.08
2022-08-07T12:59:08.386Z,20.28
2022-08-07T13:01:41.664Z,20.38
2022-08-07T13:04:31.617Z,20.42
2022-08-07T13:07:07.309Z,20.59
2022-08-07T13:10:37.735Z,20.62
2022-08-07T13:12:31.959Z,20.77
2022-08-07T13:15:11.190Z,20.70
2022-08-07T13:17:46.727Z,20.91
2022-08-07T13:20:27.686Z,21.09
2022-08-07T13:23:59.858Z,21.11
2022-08-07T13:26:00.599Z,21.15
2022-08-07T13:28:35.781Z,21.30
2022-08-07T13:31:06.477Z,21.44
2022-08-07T13:34:34.126Z,21.46
2022-08-07T13:37:00.208Z,21.61
2022-08-07T13:39:28.706Z,21.70
2022-08-07T13:42:21.532Z,21.79
2022-08-07T13:44:55.365Z,21.73
2022-08-07T13:48:06.605Z,21.92
2022-08-07T13:50:33.729Z,21.89
2022-08-07T13:53:04.127Z,21.88
2022-08-07T13:55:34.017Z,21.82
2022-08-07T13:58:31.509Z,21.90
2022-08-07T14:01:00.040Z,21.78
2022-08-07T14:04:06.985Z,21.65
2022-08-07T14:06:35.267Z,21.62
2022-08-07T14:09:04.698Z,21.61
2022-08-07T14:11:53.350Z,21.35
2022-08-07T14:14:20.960Z,21.34
2022-08-07T14:16:50.160Z,21.38
2022-08-07T14:20:40.525Z,21.23
2022-08-07T14:22:34.709Z,21.30
2022-08-07T14:25:10.941Z,21.16
2022-08-07T14:28:11.456Z,21.02
2022-08-07T14:30:34.039Z,21.07
2022-08-07T14:33:05.256Z,21.20
2022-08-07T14:35:45.739Z,21.40
2022-08-07T14:38:26.148Z,21.58
2022-08-07T14:41:03.807Z,21.71
2022-08-07T14:43:57.911Z,21.73
2022-08-07T14:46:30.721Z,21.70
2022-08-07T14:49:56.214Z,21.52
2022-08-07T14:54:42.859Z,21.43
2022-08-07T14:57:11.607Z,21.63
2022-08-07T15:00:05.154Z,21.41
2022-08-07T15:02:34.518Z,21.64
2022-08-07T15:07:51.892Z,21.62
2022-08-07T15:10:26.783Z,21.26
2022-08-07T15:13:11.703Z,21.04
2022-08-07T15:15:42.977Z,21.15
2022-08-07T15:18:28.438Z,21.21
2022-08-07T15:21:03.726Z,21.29
2022-08-07T15:25:04.026Z,20.64
2022-08-07T15:26:47.575Z,20.72
2022-08-07T15:30:08.586Z,20.29
2022-08-07T15:32:05.034Z,20.53
2022-08-07T15:34:50.686Z,20.74
2022-08-07T15:37:27.811Z,20.77
2022-08-07T15:42:47.777Z,20.78
2022-08-07T15:45:21.088Z,20.29
2022-08-07T15:48:12.561Z,19.91
2022-08-07T15:51:07.836Z,19.89
2022-08-07T15:53:51.607Z,19.64
2022-08-07T15:56:21.688Z,19.74
2022-08-07T15:58:53.711Z,19.84
2022-08-07T16:01:38.535Z,19.83
2022-08-07T16:04:14.773Z,19.93
2022-08-07T16:06:50.450Z,20.17
2022-08-07T16:09:22.858Z,20.31
2022-08-07T16:12:00.097Z,20.48
2022-08-07T16:14:40.828Z,20.07
2022-08-07T16:18:01.578Z,19.91
2022-08-07T16:20:34.022Z,20.18
2022-08-07T16:23:52.210Z,20.02
2022-08-07T16:26:11.001Z,20.22
2022-08-07T16:30:05.842Z,20.02
2022-08-07T16:31:51.641Z,20.38
2022-08-07T16:34:36.821Z,20.43
2022-08-07T16:38:06.587Z,20.53
2022-08-07T16:40:23.185Z,20.69
2022-08-07T16:42:58.424Z,20.66
2022-08-07T16:46:47.063Z,20.53
2022-08-07T16:48:15.288Z,20.54
2022-08-07T16:51:22.608Z,20.49
2022-08-07T16:54:06.767Z,20.54
2022-08-07T16:56:42.484Z,20.51
2022-08-07T16:59:17.718Z,20.46
2022-08-07T17:02:08.910Z,20.49
2022-08-07T17:05:05.215Z,20.28
2022-08-07T17:07:55.088Z,20.19
2022-08-07T17:10:33.378Z,20.09
2022-08-07T17:13:16.833Z,19.90
2022-08-07T17:15:51.592Z,19.91
2022-08-07T17:18:33.819Z,19.92
2022-08-07T17:21:01.916Z,19.78
2022-08-07T17:23:51.996Z,19.77
2022-08-07T17:26:36.947Z,19.76
2022-08-07T17:30:15.818Z,19.61
2022-08-07T17:32:30.954Z,19.64
2022-08-07T17:35:51.058Z,19.64
2022-08-07T17:38:05.632Z,19.56
2022-08-07T17:40:50.743Z,19.51
2022-08-07T17:44:03.141Z,19.42
2022-08-07T17:46:13.820Z,19.37
2022-08-07T17:49:00.776Z,19.45
2022-08-07T17:52:00.811Z,19.24
2022-08-07T17:54:53.862Z,19.16
2022-08-07T17:57:58.865Z,19.19
2022-08-07T18:00:34.543Z,19.13
2022-08-07T18:03:25.401Z,19.15
2022-08-07T18:06:33.336Z,18.92
2022-08-07T18:09:05.783Z,19.20
2022-08-07T18:12:06.652Z,19.20
2022-08-07T18:14:45.016Z,19.19
2022-08-07T18:18:33.005Z,19.05
2022-08-07T18:21:03.694Z,18.91
2022-08-07T18:23:57.198Z,18.80
2022-08-07T18:26:33.980Z,18.66
2022-08-07T18:30:06.902Z,18.66
2022-08-07T18:32:21.837Z,18.90
2022-08-07T18:35:04.243Z,18.79
2022-08-07T18:38:55.557Z,18.74
2022-08-07T18:40:42.305Z,18.76
2022-08-07T18:43:11.908Z,18.70
2022-08-07T18:46:25.857Z,18.67
2022-08-07T18:50:19.685Z,18.59
2022-08-07T18:52:34.630Z,18.55
2022-08-07T18:55:40.723Z,18.62
2022-08-07T18:58:19.677Z,18.62
2022-08-07T19:01:02.388Z,18.47
2022-08-07T19:03:38.704Z,18.37
2022-08-07T19:06:05.983Z,18.31
2022-08-07T19:08:52.236Z,18.29
2022-08-07T19:11:36.082Z,18.28
2022-08-07T19:14:08.133Z,18.26
2022-08-07T19:17:07.005Z,18.24
2022-08-07T19:19:47.259Z,18.15
2022-08-07T19:22:34.682Z,18.17
2022-08-07T19:25:06.643Z,18.14
2022-08-07T19:28:58.312Z,18.11
2022-08-07T19:31:06.450Z,18.08
2022-08-07T19:33:15.706Z,18.01
2022-08-07T19:35:43.910Z,17.98
2022-08-07T19:38:15.700Z,18.01
2022-08-07T19:40:50.450Z,17.92
2022-08-07T19:43:50.224Z,17.88
2022-08-07T19:46:15.740Z,17.82
2022-08-07T19:48:53.813Z,17.88
2022-08-07T19:51:50.781Z,17.91
2022-08-07T19:54:32.750Z,17.65
2022-08-07T19:58:04.557Z,17.85
2022-08-07T19:59:48.246Z,17.78
2022-08-07T20:02:19.716Z,17.85
2022-08-07T20:04:50.261Z,17.85
2022-08-07T20:07:27.047Z,17.82
2022-08-07T20:10:38.042Z,17.79
2022-08-07T20:13:01.155Z,17.77
2022-08-07T20:15:37.240Z,17.80
2022-08-07T20:18:06.317Z,17.72
2022-08-07T20:20:41.794Z,17.71
2022-08-07T20:23:11.045Z,17.72
2022-08-07T20:26:02.336Z,17.70
2022-08-07T20:28:30.934Z,17.59
2022-08-07T20:30:59.188Z,17.59
2022-08-07T20:33:38.259Z,17.57
2022-08-07T20:36:07.027Z,17.49
2022-08-07T20:38:35.262Z,17.44
2022-08-07T20:41:24.764Z,17.42
2022-08-07T20:43:57.528Z,17.44
2022-08-07T20:46:32.322Z,17.41
2022-08-07T20:49:59.476Z,17.41
2022-08-07T20:51:51.123Z,17.36
2022-08-07T20:54:30.108Z,17.27
2022-08-07T20:57:04.715Z,17.18
2022-08-07T21:00:07.427Z,17.14
2022-08-07T21:02:41.709Z,17.09
2022-08-07T21:05:25.776Z,17.08
2022-08-07T21:08:15.685Z,17.07
2022-08-07T21:10:43.306Z,17.01
2022-08-07T21:13:12.767Z,16.94
2022-08-07T21:15:58.097Z,16.93
2022-08-07T21:18:33.936Z,16.91
2022-08-07T21:21:02.099Z,16.91
2022-08-07T21:23:50.226Z,16.90
2022-08-07T21:26:36.586Z,16.83
2022-08-07T21:29:07.236Z,16.80
2022-08-07T21:32:47.180Z,16.82
2022-08-07T21:35:06.871Z,16.78
2022-08-07T21:37:57.849Z,16.75
2022-08-07T21:40:26.999Z,16.80
2022-08-07T21:43:03.374Z,16.81
2022-08-07T21:46:04.795Z,16.81
2022-08-07T21:48:28.972Z,16.83
2022-08-07T21:51:20.455Z,16.88
2022-08-07T21:53:54.001Z,16.88
2022-08-07T21:56:35.987Z,16.77
2022-08-07T21:59:09.717Z,16.73
2022-08-07T22:02:11.557Z,16.49
2022-08-07T22:04:27.675Z,16.69
2022-08-07T22:07:00.732Z,16.68
2022-08-07T22:09:34.792Z,16.66
2022-08-07T22:12:24.691Z,16.65
2022-08-07T22:14:59.405Z,16.53
2022-08-07T22:17:36.276Z,16.36
2022-08-07T22:20:22.690Z,16.32
2022-08-07T22:23:01.640Z,16.32
2022-08-07T22:25:37.128Z,16.28
2022-08-07T22:28:29.735Z,16.27
2022-08-07T22:31:05.323Z,16.24
2022-08-07T22:33:56.204Z,16.11
2022-08-07T22:36:42.699Z,16.11
2022-08-07T22:39:23.551Z,16.14
2022-08-07T22:42:16.133Z,16.15
2022-08-07T22:44:58.047Z,16.17
2022-08-07T22:47:41.146Z,16.05
2022-08-07T22:50:33.328Z,16.06
2022-08-07T22:54:07.672Z,16.01
2022-08-07T22:56:18.037Z,16.03
2022-08-07T22:59:05.049Z,15.99
2022-08-07T23:01:51.089Z,15.99
2022-08-07T23:04:33.134Z,15.97
2022-08-07T23:07:39.816Z,15.96
2022-08-07T23:10:37.844Z,16.01
2022-08-07T23:12:58.818Z,16.01
2022-08-07T23:16:06.687Z,15.98
2022-08-07T23:18:42.119Z,16.03
2022-08-07T23:21:21.202Z,15.99
2022-08-07T23:24:06.858Z,16.09
2022-08-07T23:26:50.220Z,16.11
2022-08-07T23:29:43.919Z,16.17
2022-08-07T23:34:21.734Z,16.18
2022-08-07T23:35:48.723Z,16.16
2022-08-07T23:38:36.458Z,16.17
2022-08-07T23:41:15.295Z,16.14
2022-08-07T23:44:00.547Z,16.11
2022-08-07T23:46:53.705Z,15.98
2022-08-07T23:49:50.211Z,15.99
2022-08-07T23:53:00.908Z,15.98
2022-08-07T23:55:51.909Z,16.02
2022-08-07T23:58:37.238Z,15.95
